sensor_id;sensor_type;location;lat;lon;timestamp;P1;durP1;ratioP1;P2;durP2;ratioP2
4430;SDS011;2228;48.140;11.488;2023-04-26T00:00:49;24.48;;;13.00;;
4430;SDS011;2228;48.140;11.488;2023-04-26T00:03:17;23.30;;;13.10;;
4430;SDS011;2228;48.140;11.488;2023-04-26T00:05:44;24.90;;;13.70;;
4430;SDS011;2228;48.140;11.488;2023-04-26T00:08:11;30.98;;;14.70;;
4430;SDS011;2228;48.140;11.488;2023-04-26T00:10:38;24.45;;;14.45;;
4430;SDS011;2228;48.140;11.488;2023-04-26T00:13:06;25.00;;;13.88;;
4430;SDS011;2228;48.140;11.488;2023-04-26T00:15:33;26.25;;;15.48;;
4430;SDS011;2228;48.140;11.488;2023-04-26T00:18:00;25.08;;;14.30;;
4430;SDS011;2228;48.140;11.488;2023-04-26T00:20:27;24.52;;;13.93;;
4430;SDS011;2228;48.140;11.488;2023-04-26T00:22:54;27.05;;;14.45;;
4430;SDS011;2228;48.140;11.488;2023-04-26T00:25:21;23.58;;;14.18;;
4430;SDS011;2228;48.140;11.488;2023-04-26T00:27:48;24.70;;;13.63;;
4430;SDS011;2228;48.140;11.488;2023-04-26T00:30:16;26.42;;;14.38;;
4430;SDS011;2228;48.140;11.488;2023-04-26T00:32:43;23.63;;;12.80;;
4430;SDS011;2228;48.140;11.488;2023-04-26T00:35:11;21.85;;;13.40;;
4430;SDS011;2228;48.140;11.488;2023-04-26T00:37:38;23.75;;;14.15;;
4430;SDS011;2228;48.140;11.488;2023-04-26T00:40:06;30.55;;;15.13;;
4430;SDS011;2228;48.140;11.488;2023-04-26T00:42:36;32.45;;;16.45;;
4430;SDS011;2228;48.140;11.488;2023-04-26T00:45:03;28.23;;;14.98;;
4430;SDS011;2228;48.140;11.488;2023-04-26T00:47:32;28.95;;;15.50;;
4430;SDS011;2228;48.140;11.488;2023-04-26T00:50:02;25.52;;;14.85;;
4430;SDS011;2228;48.140;11.488;2023-04-26T00:52:29;26.73;;;13.80;;
4430;SDS011;2228;48.140;11.488;2023-04-26T00:54:57;24.23;;;14.45;;
4430;SDS011;2228;48.140;11.488;2023-04-26T00:57:28;23.95;;;13.48;;
4430;SDS011;2228;48.140;11.488;2023-04-26T00:59:55;23.23;;;13.70;;
4430;SDS011;2228;48.140;11.488;2023-04-26T01:02:22;25.65;;;12.95;;
4430;SDS011;2228;48.140;11.488;2023-04-26T01:04:53;21.13;;;11.38;;
4430;SDS011;2228;48.140;11.488;2023-04-26T01:07:19;14.43;;;9.20;;
4430;SDS011;2228;48.140;11.488;2023-04-26T01:09:47;19.02;;;10.40;;
4430;SDS011;2228;48.140;11.488;2023-04-26T01:12:14;16.60;;;10.90;;
4430;SDS011;2228;48.140;11.488;2023-04-26T01:14:42;17.58;;;10.88;;
4430;SDS011;2228;48.140;11.488;2023-04-26T01:17:10;19.77;;;10.75;;
4430;SDS011;2228;48.140;11.488;2023-04-26T01:19:45;18.70;;;10.65;;
4430;SDS011;2228;48.140;11.488;2023-04-26T01:22:13;20.20;;;11.50;;
4430;SDS011;2228;48.140;11.488;2023-04-26T01:24:42;23.63;;;12.35;;
4430;SDS011;2228;48.140;11.488;2023-04-26T01:27:11;23.73;;;13.10;;
4430;SDS011;2228;48.140;11.488;2023-04-26T01:29:38;25.00;;;13.53;;
4430;SDS011;2228;48.140;11.488;2023-04-26T01:32:05;27.83;;;14.65;;
4430;SDS011;2228;48.140;11.488;2023-04-26T01:34:32;27.20;;;14.80;;
4430;SDS011;2228;48.140;11.488;2023-04-26T01:36:59;29.27;;;14.50;;
4430;SDS011;2228;48.140;11.488;2023-04-26T01:39:27;29.55;;;14.40;;
4430;SDS011;2228;48.140;11.488;2023-04-26T01:41:56;27.85;;;13.48;;
4430;SDS011;2228;48.140;11.488;2023-04-26T01:44:23;26.80;;;13.53;;
4430;SDS011;2228;48.140;11.488;2023-04-26T01:46:50;25.15;;;12.70;;
4430;SDS011;2228;48.140;11.488;2023-04-26T01:49:17;25.30;;;12.60;;
4430;SDS011;2228;48.140;11.488;2023-04-26T01:51:44;25.55;;;12.35;;
4430;SDS011;2228;48.140;11.488;2023-04-26T01:54:11;24.30;;;12.00;;
4430;SDS011;2228;48.140;11.488;2023-04-26T01:56:37;20.88;;;10.95;;
4430;SDS011;2228;48.140;11.488;2023-04-26T01:59:06;16.05;;;9.80;;
4430;SDS011;2228;48.140;11.488;2023-04-26T02:01:32;19.48;;;10.55;;
4430;SDS011;2228;48.140;11.488;2023-04-26T02:04:00;21.30;;;9.90;;
4430;SDS011;2228;48.140;11.488;2023-04-26T02:06:28;21.65;;;10.30;;
4430;SDS011;2228;48.140;11.488;2023-04-26T02:08:55;19.98;;;10.63;;
4430;SDS011;2228;48.140;11.488;2023-04-26T02:11:22;18.60;;;9.90;;
4430;SDS011;2228;48.140;11.488;2023-04-26T02:13:51;19.67;;;10.38;;
4430;SDS011;2228;48.140;11.488;2023-04-26T02:16:19;21.97;;;10.70;;
4430;SDS011;2228;48.140;11.488;2023-04-26T02:18:46;18.83;;;10.55;;
4430;SDS011;2228;48.140;11.488;2023-04-26T02:21:15;20.75;;;9.95;;
4430;SDS011;2228;48.140;11.488;2023-04-26T02:23:42;18.05;;;10.10;;
4430;SDS011;2228;48.140;11.488;2023-04-26T02:26:08;17.33;;;9.63;;
4430;SDS011;2228;48.140;11.488;2023-04-26T02:28:35;20.27;;;10.03;;
4430;SDS011;2228;48.140;11.488;2023-04-26T02:31:02;19.13;;;10.77;;
4430;SDS011;2228;48.140;11.488;2023-04-26T02:33:31;20.58;;;11.02;;
4430;SDS011;2228;48.140;11.488;2023-04-26T02:35:58;23.42;;;10.85;;
4430;SDS011;2228;48.140;11.488;2023-04-26T02:38:27;23.20;;;10.57;;
4430;SDS011;2228;48.140;11.488;2023-04-26T02:40:56;18.73;;;10.43;;
4430;SDS011;2228;48.140;11.488;2023-04-26T02:43:24;18.00;;;9.65;;
4430;SDS011;2228;48.140;11.488;2023-04-26T02:45:51;22.67;;;11.13;;
4430;SDS011;2228;48.140;11.488;2023-04-26T02:48:18;20.67;;;11.20;;
4430;SDS011;2228;48.140;11.488;2023-04-26T02:50:46;20.73;;;10.50;;
4430;SDS011;2228;48.140;11.488;2023-04-26T02:53:13;21.13;;;10.30;;
4430;SDS011;2228;48.140;11.488;2023-04-26T02:55:42;22.73;;;11.23;;
4430;SDS011;2228;48.140;11.488;2023-04-26T02:58:09;20.75;;;10.45;;
4430;SDS011;2228;48.140;11.488;2023-04-26T03:00:35;19.40;;;10.05;;
4430;SDS011;2228;48.140;11.488;2023-04-26T03:03:02;15.45;;;9.60;;
4430;SDS011;2228;48.140;11.488;2023-04-26T03:05:29;14.70;;;9.02;;
4430;SDS011;2228;48.140;11.488;2023-04-26T03:07:58;17.73;;;10.07;;
4430;SDS011;2228;48.140;11.488;2023-04-26T03:10:25;17.73;;;9.70;;
4430;SDS011;2228;48.140;11.488;2023-04-26T03:12:51;17.30;;;9.80;;
4430;SDS011;2228;48.140;11.488;2023-04-26T03:15:18;20.42;;;9.93;;
4430;SDS011;2228;48.140;11.488;2023-04-26T03:17:45;18.23;;;9.80;;
4430;SDS011;2228;48.140;11.488;2023-04-26T03:20:12;20.15;;;10.40;;
4430;SDS011;2228;48.140;11.488;2023-04-26T03:22:40;19.48;;;10.00;;
4430;SDS011;2228;48.140;11.488;2023-04-26T03:25:08;20.33;;;11.00;;
4430;SDS011;2228;48.140;11.488;2023-04-26T03:27:35;26.30;;;11.40;;
4430;SDS011;2228;48.140;11.488;2023-04-26T03:30:02;21.60;;;11.67;;
4430;SDS011;2228;48.140;11.488;2023-04-26T03:32:30;20.20;;;11.32;;
4430;SDS011;2228;48.140;11.488;2023-04-26T03:34:57;24.48;;;11.70;;
4430;SDS011;2228;48.140;11.488;2023-04-26T03:37:24;17.60;;;10.23;;
4430;SDS011;2228;48.140;11.488;2023-04-26T03:39:51;22.02;;;11.45;;
4430;SDS011;2228;48.140;11.488;2023-04-26T03:42:19;20.05;;;9.90;;
4430;SDS011;2228;48.140;11.488;2023-04-26T03:44:46;17.08;;;9.75;;
4430;SDS011;2228;48.140;11.488;2023-04-26T03:47:13;17.10;;;10.10;;
4430;SDS011;2228;48.140;11.488;2023-04-26T03:49:40;18.83;;;11.38;;
4430;SDS011;2228;48.140;11.488;2023-04-26T03:52:07;21.83;;;11.38;;
4430;SDS011;2228;48.140;11.488;2023-04-26T03:54:35;24.65;;;12.63;;
4430;SDS011;2228;48.140;11.488;2023-04-26T03:57:02;29.15;;;12.52;;
4430;SDS011;2228;48.140;11.488;2023-04-26T03:59:30;27.70;;;12.63;;
4430;SDS011;2228;48.140;11.488;2023-04-26T04:01:57;28.08;;;13.30;;
4430;SDS011;2228;48.140;11.488;2023-04-26T04:04:24;25.10;;;13.70;;
4430;SDS011;2228;48.140;11.488;2023-04-26T04:06:51;30.15;;;14.90;;
4430;SDS011;2228;48.140;11.488;2023-04-26T04:09:17;27.27;;;13.85;;
4430;SDS011;2228;48.140;11.488;2023-04-26T04:11:44;31.08;;;14.88;;
4430;SDS011;2228;48.140;11.488;2023-04-26T04:14:11;32.40;;;15.80;;
4430;SDS011;2228;48.140;11.488;2023-04-26T04:16:40;32.15;;;16.00;;
4430;SDS011;2228;48.140;11.488;2023-04-26T04:19:07;30.20;;;14.10;;
4430;SDS011;2228;48.140;11.488;2023-04-26T04:21:34;27.30;;;13.60;;
4430;SDS011;2228;48.140;11.488;2023-04-26T04:24:00;26.67;;;13.68;;
4430;SDS011;2228;48.140;11.488;2023-04-26T04:26:28;28.42;;;12.90;;
4430;SDS011;2228;48.140;11.488;2023-04-26T04:28:55;24.85;;;13.63;;
4430;SDS011;2228;48.140;11.488;2023-04-26T04:31:24;30.23;;;13.10;;
4430;SDS011;2228;48.140;11.488;2023-04-26T04:33:52;26.83;;;13.45;;
4430;SDS011;2228;48.140;11.488;2023-04-26T04:36:19;27.52;;;13.40;;
4430;SDS011;2228;48.140;11.488;2023-04-26T04:38:47;25.17;;;12.85;;
4430;SDS011;2228;48.140;11.488;2023-04-26T04:41:13;25.43;;;11.70;;
4430;SDS011;2228;48.140;11.488;2023-04-26T04:43:41;22.25;;;11.60;;
4430;SDS011;2228;48.140;11.488;2023-04-26T04:46:08;22.63;;;12.75;;
4430;SDS011;2228;48.140;11.488;2023-04-26T04:48:34;25.95;;;12.85;;
4430;SDS011;2228;48.140;11.488;2023-04-26T04:51:07;21.65;;;11.68;;
4430;SDS011;2228;48.140;11.488;2023-04-26T04:53:34;21.80;;;11.63;;
4430;SDS011;2228;48.140;11.488;2023-04-26T04:56:01;20.88;;;11.52;;
4430;SDS011;2228;48.140;11.488;2023-04-26T04:58:28;24.77;;;12.40;;
4430;SDS011;2228;48.140;11.488;2023-04-26T05:00:55;24.92;;;11.57;;
4430;SDS011;2228;48.140;11.488;2023-04-26T05:03:25;20.40;;;11.50;;
4430;SDS011;2228;48.140;11.488;2023-04-26T05:05:52;21.38;;;11.45;;
4430;SDS011;2228;48.140;11.488;2023-04-26T05:08:20;20.75;;;11.23;;
4430;SDS011;2228;48.140;11.488;2023-04-26T05:10:47;23.10;;;12.07;;
4430;SDS011;2228;48.140;11.488;2023-04-26T05:13:14;24.17;;;12.05;;
4430;SDS011;2228;48.140;11.488;2023-04-26T05:15:41;23.55;;;11.48;;
4430;SDS011;2228;48.140;11.488;2023-04-26T05:18:08;28.77;;;13.00;;
4430;SDS011;2228;48.140;11.488;2023-04-26T05:20:36;25.50;;;12.32;;
4430;SDS011;2228;48.140;11.488;2023-04-26T05:23:05;24.50;;;12.50;;
4430;SDS011;2228;48.140;11.488;2023-04-26T05:25:36;22.02;;;11.70;;
4430;SDS011;2228;48.140;11.488;2023-04-26T05:28:03;28.48;;;11.85;;
4430;SDS011;2228;48.140;11.488;2023-04-26T05:30:36;23.08;;;11.93;;
4430;SDS011;2228;48.140;11.488;2023-04-26T05:33:04;24.17;;;12.45;;
4430;SDS011;2228;48.140;11.488;2023-04-26T05:35:31;25.65;;;12.93;;
4430;SDS011;2228;48.140;11.488;2023-04-26T05:37:59;23.00;;;13.27;;
4430;SDS011;2228;48.140;11.488;2023-04-26T05:40:26;25.48;;;14.13;;
4430;SDS011;2228;48.140;11.488;2023-04-26T05:42:55;26.65;;;13.50;;
4430;SDS011;2228;48.140;11.488;2023-04-26T05:45:22;27.52;;;13.75;;
4430;SDS011;2228;48.140;11.488;2023-04-26T05:47:49;24.88;;;14.07;;
4430;SDS011;2228;48.140;11.488;2023-04-26T05:50:16;32.20;;;15.50;;
4430;SDS011;2228;48.140;11.488;2023-04-26T05:52:43;24.67;;;14.00;;
4430;SDS011;2228;48.140;11.488;2023-04-26T05:55:09;22.10;;;11.30;;
4430;SDS011;2228;48.140;11.488;2023-04-26T05:57:37;18.85;;;10.70;;
4430;SDS011;2228;48.140;11.488;2023-04-26T06:00:06;22.15;;;12.02;;
4430;SDS011;2228;48.140;11.488;2023-04-26T06:02:36;22.33;;;11.30;;
4430;SDS011;2228;48.140;11.488;2023-04-26T06:05:03;26.23;;;13.35;;
4430;SDS011;2228;48.140;11.488;2023-04-26T06:07:31;24.20;;;13.70;;
4430;SDS011;2228;48.140;11.488;2023-04-26T06:09:59;25.13;;;13.73;;
4430;SDS011;2228;48.140;11.488;2023-04-26T06:12:26;22.40;;;12.00;;
4430;SDS011;2228;48.140;11.488;2023-04-26T06:14:53;20.58;;;11.20;;
4430;SDS011;2228;48.140;11.488;2023-04-26T06:17:21;21.33;;;12.10;;
4430;SDS011;2228;48.140;11.488;2023-04-26T06:19:49;23.23;;;11.80;;
4430;SDS011;2228;48.140;11.488;2023-04-26T06:22:16;18.77;;;11.00;;
4430;SDS011;2228;48.140;11.488;2023-04-26T06:24:43;16.07;;;10.20;;
4430;SDS011;2228;48.140;11.488;2023-04-26T06:27:09;19.05;;;10.20;;
4430;SDS011;2228;48.140;11.488;2023-04-26T06:29:36;24.50;;;13.07;;
4430;SDS011;2228;48.140;11.488;2023-04-26T06:32:03;21.83;;;11.75;;
4430;SDS011;2228;48.140;11.488;2023-04-26T06:34:32;22.80;;;11.30;;
4430;SDS011;2228;48.140;11.488;2023-04-26T06:36:59;20.63;;;10.40;;
4430;SDS011;2228;48.140;11.488;2023-04-26T06:39:26;17.02;;;9.60;;
4430;SDS011;2228;48.140;11.488;2023-04-26T06:41:53;17.17;;;9.10;;
4430;SDS011;2228;48.140;11.488;2023-04-26T06:44:20;20.02;;;10.60;;
4430;SDS011;2228;48.140;11.488;2023-04-26T06:46:47;15.32;;;10.13;;
4430;SDS011;2228;48.140;11.488;2023-04-26T06:49:14;13.35;;;8.50;;
4430;SDS011;2228;48.140;11.488;2023-04-26T06:51:42;14.93;;;9.07;;
4430;SDS011;2228;48.140;11.488;2023-04-26T06:54:10;15.38;;;8.02;;
4430;SDS011;2228;48.140;11.488;2023-04-26T06:56:38;13.40;;;7.00;;
4430;SDS011;2228;48.140;11.488;2023-04-26T06:59:05;11.70;;;7.10;;
4430;SDS011;2228;48.140;11.488;2023-04-26T07:01:33;13.45;;;6.90;;
4430;SDS011;2228;48.140;11.488;2023-04-26T07:04:00;10.77;;;7.18;;
4430;SDS011;2228;48.140;11.488;2023-04-26T07:06:28;10.27;;;5.70;;
4430;SDS011;2228;48.140;11.488;2023-04-26T07:08:58;10.10;;;6.00;;
4430;SDS011;2228;48.140;11.488;2023-04-26T07:11:27;11.73;;;5.65;;
4430;SDS011;2228;48.140;11.488;2023-04-26T07:13:55;11.90;;;6.30;;
4430;SDS011;2228;48.140;11.488;2023-04-26T07:16:21;9.55;;;6.10;;
4430;SDS011;2228;48.140;11.488;2023-04-26T07:18:48;17.08;;;6.95;;
4430;SDS011;2228;48.140;11.488;2023-04-26T07:21:16;18.10;;;6.55;;
4430;SDS011;2228;48.140;11.488;2023-04-26T07:23:43;12.75;;;6.90;;
4430;SDS011;2228;48.140;11.488;2023-04-26T07:26:12;8.13;;;5.75;;
4430;SDS011;2228;48.140;11.488;2023-04-26T07:28:39;9.80;;;5.95;;
4430;SDS011;2228;48.140;11.488;2023-04-26T07:31:06;11.73;;;5.88;;
4430;SDS011;2228;48.140;11.488;2023-04-26T07:33:32;10.05;;;5.70;;
4430;SDS011;2228;48.140;11.488;2023-04-26T07:35:59;12.05;;;6.63;;
4430;SDS011;2228;48.140;11.488;2023-04-26T07:38:26;12.13;;;6.70;;
4430;SDS011;2228;48.140;11.488;2023-04-26T07:40:54;13.25;;;7.03;;
4430;SDS011;2228;48.140;11.488;2023-04-26T07:43:22;11.70;;;6.57;;
4430;SDS011;2228;48.140;11.488;2023-04-26T07:45:49;14.20;;;6.10;;
4430;SDS011;2228;48.140;11.488;2023-04-26T07:48:16;11.57;;;6.60;;
4430;SDS011;2228;48.140;11.488;2023-04-26T07:50:43;11.13;;;6.82;;
4430;SDS011;2228;48.140;11.488;2023-04-26T07:53:10;19.30;;;7.00;;
4430;SDS011;2228;48.140;11.488;2023-04-26T07:55:37;11.82;;;7.50;;
4430;SDS011;2228;48.140;11.488;2023-04-26T07:58:04;13.75;;;7.75;;
4430;SDS011;2228;48.140;11.488;2023-04-26T08:00:33;12.23;;;7.40;;
4430;SDS011;2228;48.140;11.488;2023-04-26T08:03:02;15.87;;;8.63;;
4430;SDS011;2228;48.140;11.488;2023-04-26T08:05:30;12.77;;;7.30;;
4430;SDS011;2228;48.140;11.488;2023-04-26T08:07:56;11.87;;;7.30;;
4430;SDS011;2228;48.140;11.488;2023-04-26T08:10:25;12.70;;;7.30;;
4430;SDS011;2228;48.140;11.488;2023-04-26T08:12:52;14.93;;;7.10;;
4430;SDS011;2228;48.140;11.488;2023-04-26T08:15:21;11.02;;;6.80;;
4430;SDS011;2228;48.140;11.488;2023-04-26T08:17:49;12.57;;;7.15;;
4430;SDS011;2228;48.140;11.488;2023-04-26T08:20:17;8.07;;;5.65;;
4430;SDS011;2228;48.140;11.488;2023-04-26T08:22:45;12.73;;;6.50;;
4430;SDS011;2228;48.140;11.488;2023-04-26T08:25:11;12.85;;;6.38;;
4430;SDS011;2228;48.140;11.488;2023-04-26T08:27:38;12.88;;;5.90;;
4430;SDS011;2228;48.140;11.488;2023-04-26T08:30:05;10.43;;;5.43;;
4430;SDS011;2228;48.140;11.488;2023-04-26T08:32:33;10.05;;;5.00;;
4430;SDS011;2228;48.140;11.488;2023-04-26T08:35:02;9.95;;;5.63;;
4430;SDS011;2228;48.140;11.488;2023-04-26T08:37:30;12.70;;;5.70;;
4430;SDS011;2228;48.140;11.488;2023-04-26T08:39:57;11.95;;;6.22;;
4430;SDS011;2228;48.140;11.488;2023-04-26T08:42:26;10.07;;;5.40;;
4430;SDS011;2228;48.140;11.488;2023-04-26T08:44:53;10.23;;;5.55;;
4430;SDS011;2228;48.140;11.488;2023-04-26T08:47:23;9.55;;;5.38;;
4430;SDS011;2228;48.140;11.488;2023-04-26T08:49:55;11.75;;;5.80;;
4430;SDS011;2228;48.140;11.488;2023-04-26T08:52:29;10.53;;;4.60;;
4430;SDS011;2228;48.140;11.488;2023-04-26T08:54:57;8.52;;;3.90;;
4430;SDS011;2228;48.140;11.488;2023-04-26T08:57:26;12.10;;;4.38;;
4430;SDS011;2228;48.140;11.488;2023-04-26T08:59:55;9.45;;;4.80;;
4430;SDS011;2228;48.140;11.488;2023-04-26T09:02:23;7.07;;;4.32;;
4430;SDS011;2228;48.140;11.488;2023-04-26T09:04:50;11.20;;;4.60;;
4430;SDS011;2228;48.140;11.488;2023-04-26T09:07:18;11.80;;;4.60;;
4430;SDS011;2228;48.140;11.488;2023-04-26T09:09:48;8.48;;;4.68;;
4430;SDS011;2228;48.140;11.488;2023-04-26T09:12:16;12.65;;;4.53;;
4430;SDS011;2228;48.140;11.488;2023-04-26T09:14:45;8.60;;;4.30;;
4430;SDS011;2228;48.140;11.488;2023-04-26T09:17:25;6.50;;;3.60;;
4430;SDS011;2228;48.140;11.488;2023-04-26T09:19:52;7.20;;;3.88;;
4430;SDS011;2228;48.140;11.488;2023-04-26T09:22:26;7.45;;;4.20;;
4430;SDS011;2228;48.140;11.488;2023-04-26T09:24:56;5.85;;;4.10;;
4430;SDS011;2228;48.140;11.488;2023-04-26T09:27:31;10.20;;;4.95;;
4430;SDS011;2228;48.140;11.488;2023-04-26T09:30:02;11.40;;;5.20;;
4430;SDS011;2228;48.140;11.488;2023-04-26T09:35:30;5.65;;;3.80;;
4430;SDS011;2228;48.140;11.488;2023-04-26T09:37:58;7.10;;;3.30;;
4430;SDS011;2228;48.140;11.488;2023-04-26T09:40:29;5.50;;;3.25;;
4430;SDS011;2228;48.140;11.488;2023-04-26T09:43:00;6.50;;;3.87;;
4430;SDS011;2228;48.140;11.488;2023-04-26T09:45:29;6.80;;;4.32;;
4430;SDS011;2228;48.140;11.488;2023-04-26T09:48:13;6.13;;;3.80;;
4430;SDS011;2228;48.140;11.488;2023-04-26T09:50:42;6.18;;;3.80;;
4430;SDS011;2228;48.140;11.488;2023-04-26T09:53:11;8.00;;;3.95;;
4430;SDS011;2228;48.140;11.488;2023-04-26T09:55:51;8.50;;;4.40;;
4430;SDS011;2228;48.140;11.488;2023-04-26T09:58:18;6.13;;;3.10;;
4430;SDS011;2228;48.140;11.488;2023-04-26T10:00:45;7.57;;;3.53;;
4430;SDS011;2228;48.140;11.488;2023-04-26T10:03:15;7.60;;;3.50;;
4430;SDS011;2228;48.140;11.488;2023-04-26T10:05:44;6.15;;;3.80;;
4430;SDS011;2228;48.140;11.488;2023-04-26T10:08:11;5.60;;;3.50;;
4430;SDS011;2228;48.140;11.488;2023-04-26T10:10:38;6.00;;;3.80;;
4430;SDS011;2228;48.140;11.488;2023-04-26T10:13:07;7.60;;;3.80;;
4430;SDS011;2228;48.140;11.488;2023-04-26T10:15:36;6.53;;;3.80;;
4430;SDS011;2228;48.140;11.488;2023-04-26T10:18:05;7.53;;;3.60;;
4430;SDS011;2228;48.140;11.488;2023-04-26T10:20:32;7.70;;;2.90;;
4430;SDS011;2228;48.140;11.488;2023-04-26T10:23:03;6.45;;;3.30;;
4430;SDS011;2228;48.140;11.488;2023-04-26T10:25:34;6.07;;;3.20;;
4430;SDS011;2228;48.140;11.488;2023-04-26T10:28:02;8.00;;;3.38;;
4430;SDS011;2228;48.140;11.488;2023-04-26T10:30:30;8.20;;;3.35;;
4430;SDS011;2228;48.140;11.488;2023-04-26T10:38:33;6.88;;;3.00;;
4430;SDS011;2228;48.140;11.488;2023-04-26T10:43:53;6.07;;;3.50;;
4430;SDS011;2228;48.140;11.488;2023-04-26T10:46:35;7.47;;;3.20;;
4430;SDS011;2228;48.140;11.488;2023-04-26T10:49:12;7.72;;;3.45;;
4430;SDS011;2228;48.140;11.488;2023-04-26T11:03:03;6.05;;;2.50;;
4430;SDS011;2228;48.140;11.488;2023-04-26T11:05:36;4.77;;;2.00;;
4430;SDS011;2228;48.140;11.488;2023-04-26T11:08:06;6.28;;;2.50;;
4430;SDS011;2228;48.140;11.488;2023-04-26T11:10:40;8.65;;;2.60;;
4430;SDS011;2228;48.140;11.488;2023-04-26T11:13:07;5.20;;;2.40;;
4430;SDS011;2228;48.140;11.488;2023-04-26T11:15:34;4.90;;;2.00;;
4430;SDS011;2228;48.140;11.488;2023-04-26T11:18:03;4.63;;;2.00;;
4430;SDS011;2228;48.140;11.488;2023-04-26T11:20:31;8.23;;;2.30;;
4430;SDS011;2228;48.140;11.488;2023-04-26T11:23:00;8.98;;;3.70;;
4430;SDS011;2228;48.140;11.488;2023-04-26T11:25:32;6.93;;;3.53;;
4430;SDS011;2228;48.140;11.488;2023-04-26T11:27:59;11.10;;;5.20;;
4430;SDS011;2228;48.140;11.488;2023-04-26T11:30:27;8.32;;;3.60;;
4430;SDS011;2228;48.140;11.488;2023-04-26T11:32:56;8.23;;;3.80;;
4430;SDS011;2228;48.140;11.488;2023-04-26T11:35:24;6.88;;;3.35;;
4430;SDS011;2228;48.140;11.488;2023-04-26T11:37:56;8.63;;;4.00;;
4430;SDS011;2228;48.140;11.488;2023-04-26T11:40:26;7.30;;;3.40;;
4430;SDS011;2228;48.140;11.488;2023-04-26T11:42:57;8.18;;;3.22;;
4430;SDS011;2228;48.140;11.488;2023-04-26T11:45:27;6.07;;;2.95;;
4430;SDS011;2228;48.140;11.488;2023-04-26T11:47:57;6.60;;;2.50;;
4430;SDS011;2228;48.140;11.488;2023-04-26T11:50:35;6.95;;;2.40;;
4430;SDS011;2228;48.140;11.488;2023-04-26T11:53:04;6.80;;;2.97;;
4430;SDS011;2228;48.140;11.488;2023-04-26T11:55:32;4.95;;;2.40;;
4430;SDS011;2228;48.140;11.488;2023-04-26T11:58:00;5.28;;;2.35;;
4430;SDS011;2228;48.140;11.488;2023-04-26T12:00:28;4.50;;;2.00;;
4430;SDS011;2228;48.140;11.488;2023-04-26T12:02:55;5.50;;;2.45;;
4430;SDS011;2228;48.140;11.488;2023-04-26T12:05:31;5.25;;;2.35;;
4430;SDS011;2228;48.140;11.488;2023-04-26T12:07:58;3.67;;;2.20;;
4430;SDS011;2228;48.140;11.488;2023-04-26T12:10:26;5.82;;;3.08;;
4430;SDS011;2228;48.140;11.488;2023-04-26T12:12:58;8.25;;;4.28;;
4430;SDS011;2228;48.140;11.488;2023-04-26T12:15:27;7.55;;;3.78;;
4430;SDS011;2228;48.140;11.488;2023-04-26T12:17:59;6.67;;;3.40;;
4430;SDS011;2228;48.140;11.488;2023-04-26T12:20:34;6.97;;;3.50;;
4430;SDS011;2228;48.140;11.488;2023-04-26T12:23:03;5.90;;;3.90;;
4430;SDS011;2228;48.140;11.488;2023-04-26T12:25:32;9.52;;;4.07;;
4430;SDS011;2228;48.140;11.488;2023-04-26T12:28:01;6.35;;;2.80;;
4430;SDS011;2228;48.140;11.488;2023-04-26T12:30:29;7.13;;;3.50;;
4430;SDS011;2228;48.140;11.488;2023-04-26T12:32:57;7.28;;;3.65;;
4430;SDS011;2228;48.140;11.488;2023-04-26T12:35:26;6.35;;;3.55;;
4430;SDS011;2228;48.140;11.488;2023-04-26T12:37:58;6.75;;;3.80;;
4430;SDS011;2228;48.140;11.488;2023-04-26T12:40:27;8.35;;;4.90;;
4430;SDS011;2228;48.140;11.488;2023-04-26T12:42:55;12.18;;;4.63;;
4430;SDS011;2228;48.140;11.488;2023-04-26T12:45:23;7.45;;;3.55;;
4430;SDS011;2228;48.140;11.488;2023-04-26T12:47:51;7.72;;;4.20;;
4430;SDS011;2228;48.140;11.488;2023-04-26T12:50:20;8.13;;;4.07;;
4430;SDS011;2228;48.140;11.488;2023-04-26T12:52:47;6.53;;;3.67;;
4430;SDS011;2228;48.140;11.488;2023-04-26T12:55:17;6.38;;;3.40;;
4430;SDS011;2228;48.140;11.488;2023-04-26T12:57:45;6.70;;;3.17;;
4430;SDS011;2228;48.140;11.488;2023-04-26T13:00:14;6.88;;;3.10;;
4430;SDS011;2228;48.140;11.488;2023-04-26T13:02:42;5.45;;;3.30;;
4430;SDS011;2228;48.140;11.488;2023-04-26T13:05:11;6.85;;;3.80;;
4430;SDS011;2228;48.140;11.488;2023-04-26T13:07:45;9.88;;;5.03;;
4430;SDS011;2228;48.140;11.488;2023-04-26T13:10:12;10.30;;;4.68;;
4430;SDS011;2228;48.140;11.488;2023-04-26T13:12:42;9.30;;;3.53;;
4430;SDS011;2228;48.140;11.488;2023-04-26T13:15:09;5.80;;;3.20;;
4430;SDS011;2228;48.140;11.488;2023-04-26T13:17:37;4.53;;;2.70;;
4430;SDS011;2228;48.140;11.488;2023-04-26T13:20:07;3.80;;;2.60;;
4430;SDS011;2228;48.140;11.488;2023-04-26T13:22:47;5.50;;;2.75;;
4430;SDS011;2228;48.140;11.488;2023-04-26T13:25:15;4.05;;;2.22;;
4430;SDS011;2228;48.140;11.488;2023-04-26T13:27:45;7.30;;;2.80;;
4430;SDS011;2228;48.140;11.488;2023-04-26T13:30:12;3.80;;;2.63;;
4430;SDS011;2228;48.140;11.488;2023-04-26T13:32:40;6.23;;;2.70;;
4430;SDS011;2228;48.140;11.488;2023-04-26T13:35:07;6.50;;;2.20;;
4430;SDS011;2228;48.140;11.488;2023-04-26T13:37:44;7.00;;;3.17;;
4430;SDS011;2228;48.140;11.488;2023-04-26T13:40:11;3.60;;;2.10;;
4430;SDS011;2228;48.140;11.488;2023-04-26T13:42:38;4.80;;;2.20;;
4430;SDS011;2228;48.140;11.488;2023-04-26T13:45:09;6.32;;;2.70;;
4430;SDS011;2228;48.140;11.488;2023-04-26T13:47:37;6.90;;;2.83;;
4430;SDS011;2228;48.140;11.488;2023-04-26T13:50:05;4.80;;;2.10;;
4430;SDS011;2228;48.140;11.488;2023-04-26T13:52:32;5.45;;;2.65;;
4430;SDS011;2228;48.140;11.488;2023-04-26T13:54:59;6.40;;;2.30;;
4430;SDS011;2228;48.140;11.488;2023-04-26T13:57:27;4.80;;;2.60;;
4430;SDS011;2228;48.140;11.488;2023-04-26T13:59:53;3.70;;;2.33;;
4430;SDS011;2228;48.140;11.488;2023-04-26T14:02:22;4.07;;;2.10;;
4430;SDS011;2228;48.140;11.488;2023-04-26T14:04:49;2.75;;;1.98;;
4430;SDS011;2228;48.140;11.488;2023-04-26T14:07:16;8.10;;;2.22;;
4430;SDS011;2228;48.140;11.488;2023-04-26T14:09:43;5.95;;;2.60;;
4430;SDS011;2228;48.140;11.488;2023-04-26T14:12:10;2.38;;;1.70;;
4430;SDS011;2228;48.140;11.488;2023-04-26T14:14:36;2.95;;;2.10;;
4430;SDS011;2228;48.140;11.488;2023-04-26T14:17:03;4.43;;;2.40;;
4430;SDS011;2228;48.140;11.488;2023-04-26T14:19:32;3.78;;;2.03;;
4430;SDS011;2228;48.140;11.488;2023-04-26T14:21:59;4.25;;;2.00;;
4430;SDS011;2228;48.140;11.488;2023-04-26T14:24:26;3.90;;;2.17;;
4430;SDS011;2228;48.140;11.488;2023-04-26T14:26:53;6.15;;;2.30;;
4430;SDS011;2228;48.140;11.488;2023-04-26T14:29:20;3.67;;;1.65;;
4430;SDS011;2228;48.140;11.488;2023-04-26T14:31:47;4.77;;;1.77;;
4430;SDS011;2228;48.140;11.488;2023-04-26T14:34:14;4.78;;;2.08;;
4430;SDS011;2228;48.140;11.488;2023-04-26T14:36:42;6.70;;;2.60;;
4430;SDS011;2228;48.140;11.488;2023-04-26T14:39:09;6.07;;;2.60;;
4430;SDS011;2228;48.140;11.488;2023-04-26T14:41:36;6.30;;;3.10;;
4430;SDS011;2228;48.140;11.488;2023-04-26T14:44:03;7.70;;;3.50;;
4430;SDS011;2228;48.140;11.488;2023-04-26T14:46:30;6.72;;;3.95;;
4430;SDS011;2228;48.140;11.488;2023-04-26T14:48:57;8.98;;;4.00;;
4430;SDS011;2228;48.140;11.488;2023-04-26T14:51:24;11.30;;;3.60;;
4430;SDS011;2228;48.140;11.488;2023-04-26T14:53:52;6.95;;;3.13;;
4430;SDS011;2228;48.140;11.488;2023-04-26T14:56:19;8.20;;;3.45;;
4430;SDS011;2228;48.140;11.488;2023-04-26T14:58:47;6.78;;;2.80;;
4430;SDS011;2228;48.140;11.488;2023-04-26T15:01:14;5.57;;;3.47;;
4430;SDS011;2228;48.140;11.488;2023-04-26T15:03:41;5.75;;;3.00;;
4430;SDS011;2228;48.140;11.488;2023-04-26T15:06:08;6.53;;;3.17;;
4430;SDS011;2228;48.140;11.488;2023-04-26T15:08:35;6.95;;;3.38;;
4430;SDS011;2228;48.140;11.488;2023-04-26T15:11:04;5.43;;;3.03;;
4430;SDS011;2228;48.140;11.488;2023-04-26T15:13:30;6.45;;;3.20;;
4430;SDS011;2228;48.140;11.488;2023-04-26T15:16:00;5.22;;;3.50;;